Time;durP1;ratioP1;P1;durP2;ratioP2;P2;SDS_P1;SDS_P2;PMS_P1;PMS_P2;Temp;Humidity;BMP_temperature;BMP_pressure;BME280_temperature;BME280_humidity;BME280_pressure;Samples;Min_cycle;Max_cycle;Signal;HPM_P1;HPM_P2
2023/01/09 00:02:46;;;;;;;1.30;1.10;;;19.20;54.70;;;;;;6321268;28;20039;-66
2023/01/09 00:05:47;;;;;;;1.83;1.10;;;19.20;54.60;;;;;;6321312;28;20489;-68
2023/01/09 00:08:49;;;;;;;1.98;1.05;;;19.20;54.70;;;;;;6321267;28;20423;-67
2023/01/09 00:11:50;;;;;;;1.40;1.10;;;19.20;54.60;;;;;;6321235;28;20028;-66
2023/01/09 00:14:50;;;;;;;1.15;1.02;;;19.20;54.70;;;;;;6321120;28;20032;-67
2023/01/09 00:17:51;;;;;;;1.58;1.00;;;19.20;54.70;;;;;;6321382;28;20028;-66
2023/01/09 00:20:52;;;;;;;1.52;1.05;;;19.20;55.40;;;;;;6321002;28;20386;-67
2023/01/09 00:23:54;;;;;;;1.40;1.10;;;19.20;54.70;;;;;;6320680;28;20083;-66
2023/01/09 00:26:54;;;;;;;1.15;0.90;;;19.20;54.70;;;;;;6320629;28;20065;-67
2023/01/09 00:29:56;;;;;;;1.15;0.93;;;19.20;54.70;;;;;;6320525;28;20599;-67
2023/01/09 00:32:57;;;;;;;1.02;0.85;;;19.20;54.70;;;;;;6320570;28;20012;-66
2023/01/09 00:35:57;;;;;;;1.00;0.90;;;19.20;54.70;;;;;;6320694;28;20031;-66
2023/01/09 00:38:58;;;;;;;2.15;0.98;;;19.20;54.70;;;;;;6320224;28;20017;-67
2023/01/09 00:41:59;;;;;;;1.00;0.85;;;19.20;54.70;;;;;;6320366;28;20517;-67
2023/01/09 00:45:03;;;;;;;1.35;1.00;;;19.20;54.70;;;;;;6319595;28;20656;-67
2023/01/09 00:48:12;;;;;;;1.42;0.93;;;19.20;54.70;;;;;;6302698;28;20028;-67
2023/01/09 00:51:14;;;;;;;1.73;1.20;;;19.10;54.60;;;;;;6320520;28;20412;-66
2023/01/09 00:54:17;;;;;;;1.00;0.85;;;19.20;54.70;;;;;;6319851;28;20400;-66
2023/01/09 00:57:18;;;;;;;1.20;1.02;;;19.20;54.70;;;;;;6320323;28;20020;-67
2023/01/09 01:00:19;;;;;;;1.58;0.90;;;19.20;54.70;;;;;;6318966;28;20418;-67
2023/01/09 01:03:19;;;;;;;0.90;0.80;;;19.20;54.70;;;;;;6319955;28;20028;-66
2023/01/09 01:09:40;;;;;;;1.13;1.00;;;19.20;54.70;;;;;;6319864;28;20016;-67
2023/01/09 01:12:41;;;;;;;1.35;1.00;;;19.20;54.70;;;;;;6293271;28;20059;-66
2023/01/09 01:15:44;;;;;;;1.92;1.30;;;19.20;54.70;;;;;;6317346;28;20020;-66
2023/01/09 01:18:44;;;;;;;1.15;0.90;;;19.10;54.60;;;;;;6319909;28;20435;-67
2023/01/09 01:21:45;;;;;;;1.10;0.82;;;19.10;54.60;;;;;;6319567;28;20089;-67
2023/01/09 01:24:46;;;;;;;1.00;0.80;;;19.20;54.70;;;;;;6318786;28;20063;-66
2023/01/09 01:27:47;;;;;;;1.25;0.95;;;19.20;54.70;;;;;;6319370;28;20107;-67
2023/01/09 01:30:47;;;;;;;1.23;0.90;;;19.20;54.70;;;;;;6319565;28;20603;-67
2023/01/09 01:33:48;;;;;;;1.20;1.10;;;19.20;54.70;;;;;;6318329;28;20047;-67
2023/01/09 01:36:49;;;;;;;1.60;1.20;;;19.20;54.70;;;;;;6301293;28;20039;-67
2023/01/09 01:39:51;;;;;;;1.35;0.90;;;19.20;54.80;;;;;;6319217;28;20055;-67
2023/01/09 01:42:53;;;;;;;1.10;0.90;;;19.20;54.70;;;;;;6319182;28;20071;-67
2023/01/09 01:45:54;;;;;;;0.93;0.75;;;19.20;54.70;;;;;;6293676;28;20028;-66
2023/01/09 01:49:12;;;;;;;1.30;1.10;;;19.20;54.70;;;;;;6294209;28;20016;-67
2023/01/09 01:52:14;;;;;;;1.25;0.82;;;19.10;54.60;;;;;;6293947;28;20499;-67
2023/01/09 01:55:17;;;;;;;1.20;1.10;;;19.20;54.70;;;;;;6293417;28;20024;-66
2023/01/09 01:58:19;;;;;;;1.05;0.88;;;19.20;54.70;;;;;;6293683;28;20416;-67
2023/01/09 02:01:22;;;;;;;1.05;0.90;;;19.20;54.70;;;;;;6293748;28;20025;-67
2023/01/09 02:04:23;;;;;;;1.45;1.00;;;19.20;54.70;;;;;;6298060;28;20104;-67
2023/01/09 02:07:24;;;;;;;1.00;0.90;;;19.20;54.70;;;;;;6300112;28;20016;-67
2023/01/09 02:10:26;;;;;;;0.73;0.73;;;19.20;54.70;;;;;;6318634;28;20066;-67
2023/01/09 02:13:27;;;;;;;0.93;0.80;;;19.20;54.70;;;;;;6317807;28;20016;-66
2023/01/09 02:16:50;;;;;;;1.23;0.90;;;19.20;54.70;;;;;;6300379;28;20032;-67
2023/01/09 02:20:18;;;;;;;1.08;0.90;;;19.20;54.70;;;;;;6318588;28;20020;-67
2023/01/09 02:23:41;;;;;;;1.30;1.00;;;19.20;54.70;;;;;;6317978;28;20123;-67
2023/01/09 02:27:14;;;;;;;1.30;0.90;;;19.20;54.70;;;;;;6317779;28;20024;-67
2023/01/09 02:30:23;;;;;;;1.58;1.00;;;19.20;54.70;;;;;;6283606;28;20165;-66
2023/01/09 02:33:41;;;;;;;0.90;0.80;;;19.20;54.70;;;;;;6318266;28;20020;-66
2023/01/09 02:36:47;;;;;;;1.00;0.88;;;19.20;54.60;;;;;;6318196;28;20400;-67
2023/01/09 02:40:06;;;;;;;1.08;0.90;;;19.20;54.70;;;;;;6299669;28;20496;-67
2023/01/09 02:43:09;;;;;;;1.13;0.90;;;19.20;55.10;;;;;;6294648;28;20051;-67
2023/01/09 02:46:21;;;;;;;1.98;1.10;;;19.20;54.70;;;;;;6317621;28;20028;-67
2023/01/09 02:49:22;;;;;;;1.25;1.05;;;19.20;54.70;;;;;;6299527;28;20426;-67
2023/01/09 02:52:32;;;;;;;1.30;1.02;;;19.20;54.70;;;;;;6317160;28;20012;-67
2023/01/09 02:55:39;;;;;;;0.98;0.80;;;19.10;54.60;;;;;;6317467;28;20093;-66
2023/01/09 02:58:55;;;;;;;1.08;0.98;;;19.10;54.60;;;;;;6317387;28;20063;-67
2023/01/09 03:02:02;;;;;;;1.48;1.05;;;19.10;54.60;;;;;;6299096;28;20435;-67
2023/01/09 03:05:50;;;;;;;1.27;0.90;;;19.20;54.70;;;;;;6298921;28;20432;-67
2023/01/09 03:08:55;;;;;;;1.13;1.00;;;19.20;54.70;;;;;;6317112;28;20035;-67
2023/01/09 03:12:05;;;;;;;1.60;1.25;;;19.20;54.70;;;;;;6317465;28;20024;-67
2023/01/09 03:15:11;;;;;;;1.20;1.00;;;19.20;54.70;;;;;;6298548;28;20025;-67
2023/01/09 03:18:15;;;;;;;1.38;0.80;;;19.20;54.70;;;;;;6316949;28;20443;-67
2023/01/09 03:21:17;;;;;;;1.23;1.00;;;19.20;54.70;;;;;;6299020;28;20056;-66
2023/01/09 03:24:19;;;;;;;1.95;1.20;;;19.20;54.70;;;;;;6301066;28;20048;-67
2023/01/09 03:27:20;;;;;;;1.10;1.00;;;19.20;54.70;;;;;;6322009;28;20024;-67
2023/01/09 03:30:21;;;;;;;1.50;1.15;;;19.20;54.70;;;;;;6321679;28;20070;-67
2023/01/09 03:33:22;;;;;;;3.03;1.30;;;19.20;54.70;;;;;;6322505;28;20035;-67
2023/01/09 03:36:23;;;;;;;1.40;1.00;;;19.20;54.70;;;;;;6322081;28;20024;-67
2023/01/09 03:39:24;;;;;;;1.67;1.10;;;19.20;54.70;;;;;;6322140;28;20401;-67
2023/01/09 03:42:25;;;;;;;1.20;1.10;;;19.20;54.70;;;;;;6303619;28;20024;-66
2023/01/09 03:45:25;;;;;;;0.98;0.88;;;19.20;54.60;;;;;;6321917;28;20028;-66
2023/01/09 03:48:27;;;;;;;1.75;1.20;;;19.10;54.60;;;;;;6321306;28;20020;-66
2023/01/09 03:51:28;;;;;;;1.15;0.90;;;19.20;54.70;;;;;;6321436;28;20462;-67
2023/01/09 03:54:30;;;;;;;0.93;0.80;;;19.20;54.60;;;;;;6321874;28;20023;-66
2023/01/09 03:57:31;;;;;;;1.42;1.13;;;19.20;54.60;;;;;;6320927;28;20057;-67
2023/01/09 04:00:33;;;;;;;1.40;1.02;;;19.20;54.70;;;;;;6303084;28;20484;-67
2023/01/09 04:03:34;;;;;;;1.58;1.40;;;19.20;54.70;;;;;;6321054;28;20024;-67
2023/01/09 04:06:35;;;;;;;1.52;1.10;;;19.20;54.60;;;;;;6321118;28;20020;-67
2023/01/09 04:09:36;;;;;;;1.40;0.93;;;19.20;54.70;;;;;;6321104;28;20491;-66
2023/01/09 04:12:38;;;;;;;1.20;1.10;;;19.20;54.60;;;;;;6320912;28;20040;-67
2023/01/09 04:15:39;;;;;;;1.40;1.00;;;19.20;54.70;;;;;;6303290;28;20376;-67
2023/01/09 04:18:41;;;;;;;1.27;1.15;;;19.20;54.70;;;;;;6320389;28;20442;-67
2023/01/09 04:21:42;;;;;;;0.98;0.88;;;19.20;54.70;;;;;;6302339;28;20051;-67
2023/01/09 04:24:44;;;;;;;1.52;1.20;;;19.20;54.70;;;;;;6320698;28;20078;-67
2023/01/09 04:27:46;;;;;;;1.30;0.90;;;19.20;54.70;;;;;;6302315;28;20020;-67
2023/01/09 04:30:47;;;;;;;1.30;1.00;;;19.20;54.60;;;;;;6321065;28;20065;-66
2023/01/09 04:33:49;;;;;;;0.90;0.80;;;19.20;54.70;;;;;;6320567;28;20024;-66
2023/01/09 04:36:51;;;;;;;1.50;1.00;;;19.20;54.70;;;;;;6320570;28;20047;-66
2023/01/09 04:39:54;;;;;;;1.42;1.10;;;19.20;54.70;;;;;;6320786;28;20170;-67
2023/01/09 04:42:56;;;;;;;1.15;0.88;;;19.10;54.60;;;;;;6301869;28;20649;-67
2023/01/09 04:45:57;;;;;;;1.10;0.90;;;19.20;54.70;;;;;;6319984;28;20115;-67
2023/01/09 04:48:59;;;;;;;0.85;0.75;;;19.20;54.70;;;;;;6319967;28;20020;-66
2023/01/09 04:52:02;;;;;;;1.08;0.93;;;19.20;54.70;;;;;;6318535;28;20507;-67
2023/01/09 04:55:04;;;;;;;1.33;1.02;;;19.20;55.40;;;;;;6319852;28;20604;-66
2023/01/09 04:58:05;;;;;;;1.02;0.90;;;19.20;54.70;;;;;;6320117;28;20032;-67
2023/01/09 05:01:07;;;;;;;1.65;0.85;;;19.10;54.60;;;;;;6319925;28;20450;-67
2023/01/09 05:04:10;;;;;;;2.13;1.27;;;19.20;54.70;;;;;;6317748;28;20027;-67
2023/01/09 05:07:12;;;;;;;1.23;1.00;;;19.10;54.60;;;;;;6319797;28;20429;-67
2023/01/09 05:10:13;;;;;;;1.50;1.10;;;19.20;54.70;;;;;;6300630;28;20028;-67
2023/01/09 05:13:15;;;;;;;1.40;1.10;;;19.10;54.60;;;;;;6312033;28;20153;-67
2023/01/09 05:16:16;;;;;;;1.42;1.08;;;19.20;54.70;;;;;;6319549;28;20130;-66
2023/01/09 05:19:17;;;;;;;1.25;0.90;;;19.20;54.70;;;;;;6319592;28;20012;-67
2023/01/09 05:22:18;;;;;;;1.20;0.90;;;19.20;54.70;;;;;;6301147;28;20855;-67
2023/01/09 05:25:19;;;;;;;2.00;1.27;;;19.20;54.60;;;;;;6319215;28;20027;-66
2023/01/09 05:28:21;;;;;;;1.27;1.00;;;19.20;54.70;;;;;;6319179;28;20023;-67
2023/01/09 05:31:23;;;;;;;1.13;1.02;;;19.10;54.60;;;;;;6318930;28;20032;-67
2023/01/09 05:34:25;;;;;;;1.13;1.00;;;19.20;54.70;;;;;;6319139;28;20054;-67
2023/01/09 05:37:26;;;;;;;1.33;1.00;;;19.20;54.70;;;;;;6300235;28;20396;-66
2023/01/09 05:40:27;;;;;;;1.67;1.40;;;19.20;54.70;;;;;;6319511;28;20024;-67
2023/01/09 05:43:28;;;;;;;1.10;0.90;;;19.10;54.60;;;;;;6318793;28;20027;-66
2023/01/09 05:46:29;;;;;;;1.38;0.80;;;19.10;54.60;;;;;;6318632;28;20028;-67
2023/01/09 05:49:30;;;;;;;2.42;1.08;;;19.10;54.60;;;;;;6318993;28;20707;-67
2023/01/09 05:52:30;;;;;;;1.50;1.33;;;19.20;54.70;;;;;;6319199;28;20050;-66
2023/01/09 05:55:33;;;;;;;1.80;1.30;;;19.20;54.60;;;;;;6318420;28;20626;-67
2023/01/09 05:58:35;;;;;;;1.08;0.80;;;19.10;54.60;;;;;;6318668;28;20077;-67
2023/01/09 06:01:36;;;;;;;1.38;1.20;;;19.10;54.60;;;;;;6299875;28;20079;-67
2023/01/09 06:04:38;;;;;;;1.55;1.10;;;19.20;54.60;;;;;;6318231;28;20584;-67
2023/01/09 06:07:40;;;;;;;1.45;1.10;;;19.20;54.70;;;;;;6300462;28;20020;-67
2023/01/09 06:10:41;;;;;;;1.63;1.20;;;19.20;54.70;;;;;;6317508;28;20038;-67
2023/01/09 06:13:42;;;;;;;1.60;1.00;;;19.20;54.70;;;;;;6299971;28;20020;-67
2023/01/09 06:16:43;;;;;;;1.42;1.00;;;19.20;54.70;;;;;;6318036;28;20024;-67
2023/01/09 06:19:44;;;;;;;1.70;1.10;;;19.20;54.70;;;;;;6318236;28;20027;-67
2023/01/09 06:22:46;;;;;;;1.60;1.23;;;19.20;54.70;;;;;;6299732;28;20040;-66
2023/01/09 06:25:47;;;;;;;1.30;1.00;;;19.20;54.70;;;;;;6338106;28;20022;-67
2023/01/09 06:28:48;;;;;;;1.30;0.98;;;19.10;54.60;;;;;;6338483;28;20158;-67
2023/01/09 06:31:50;;;;;;;1.20;1.08;;;19.10;54.60;;;;;;6317735;28;20020;-66
2023/01/09 06:34:51;;;;;;;1.73;1.10;;;19.20;54.70;;;;;;6317440;28;20660;-67
2023/01/09 06:37:52;;;;;;;2.00;1.23;;;19.20;54.70;;;;;;6317833;28;20412;-67
2023/01/09 06:40:53;;;;;;;1.10;1.00;;;19.20;54.70;;;;;;6318066;28;20027;-66
2023/01/09 06:43:54;;;;;;;1.42;1.00;;;19.20;54.70;;;;;;6298808;28;20074;-66
2023/01/09 06:46:56;;;;;;;1.38;1.10;;;19.20;54.70;;;;;;6317518;28;20051;-66
2023/01/09 06:49:57;;;;;;;1.38;1.10;;;19.20;54.70;;;;;;6317677;28;20012;-67
2023/01/09 06:52:58;;;;;;;1.63;1.10;;;19.20;54.70;;;;;;6317610;28;20373;-66
2023/01/09 06:56:01;;;;;;;1.63;1.25;;;19.20;54.70;;;;;;6317142;28;20020;-66
2023/01/09 06:59:02;;;;;;;1.63;1.27;;;19.20;54.70;;;;;;6303247;28;20493;-67
2023/01/09 07:02:04;;;;;;;1.67;1.00;;;19.20;54.70;;;;;;6300151;28;20032;-67
2023/01/09 07:05:07;;;;;;;2.25;1.15;;;19.20;54.70;;;;;;6310159;28;20548;-66
2023/01/09 07:08:09;;;;;;;1.20;1.00;;;19.20;54.80;;;;;;6324038;28;20020;-66
2023/01/09 07:11:10;;;;;;;1.17;0.88;;;19.20;54.80;;;;;;6324738;28;20016;-66
2023/01/09 07:14:11;;;;;;;1.40;1.20;;;19.10;54.60;;;;;;6306506;28;20039;-66
2023/01/09 07:17:13;;;;;;;2.10;1.60;;;19.20;54.70;;;;;;6324589;28;20507;-67
2023/01/09 07:20:14;;;;;;;1.30;1.10;;;19.20;54.80;;;;;;6306638;28;20575;-67
2023/01/09 07:23:16;;;;;;;1.17;1.08;;;19.20;54.70;;;;;;6323032;28;20048;-66
2023/01/09 07:26:17;;;;;;;1.63;0.90;;;19.20;54.70;;;;;;6324656;28;20028;-67
2023/01/09 07:29:19;;;;;;;1.67;1.35;;;19.20;54.80;;;;;;6324615;28;20038;-67
2023/01/09 07:32:20;;;;;;;1.45;1.13;;;19.20;54.80;;;;;;6324231;28;20053;-67
2023/01/09 07:35:21;;;;;;;1.55;1.27;;;19.20;54.80;;;;;;6323898;28;20020;-67
2023/01/09 07:38:21;;;;;;;1.52;1.40;;;19.20;54.70;;;;;;6324536;28;20035;-67
2023/01/09 07:41:22;;;;;;;1.95;1.00;;;19.10;54.60;;;;;;6305985;28;20393;-67
2023/01/09 07:44:23;;;;;;;1.90;1.48;;;19.20;54.70;;;;;;6289006;28;20032;-67
2023/01/09 07:47:28;;;;;;;1.40;1.23;;;19.20;54.70;;;;;;6297469;28;20107;-67
2023/01/09 07:50:30;;;;;;;1.38;1.10;;;19.20;54.70;;;;;;6329078;28;20434;-67
2023/01/09 07:53:32;;;;;;;1.95;1.30;;;19.10;54.70;;;;;;6348283;28;20480;-68
2023/01/09 07:56:34;;;;;;;3.30;1.30;;;19.20;54.80;;;;;;6329069;28;20024;-67
2023/01/09 07:59:35;;;;;;;1.73;1.33;;;19.10;54.70;;;;;;6344748;28;20051;-68
2023/01/09 08:02:36;;;;;;;2.25;1.20;;;19.20;54.80;;;;;;6322828;28;20023;-67
2023/01/09 08:05:38;;;;;;;1.83;1.30;;;19.20;54.80;;;;;;6322614;28;20067;-68
2023/01/09 08:08:40;;;;;;;1.83;1.20;;;19.20;54.80;;;;;;6304296;28;20024;-68
2023/01/09 08:11:41;;;;;;;2.63;1.42;;;19.10;54.70;;;;;;6322463;28;20028;-67
2023/01/09 08:14:43;;;;;;;1.95;1.40;;;19.20;54.80;;;;;;6325652;28;20080;-68
2023/01/09 08:17:45;;;;;;;2.17;1.23;;;19.10;54.70;;;;;;6326128;28;20017;-68
2023/01/09 08:20:48;;;;;;;1.73;1.40;;;19.20;54.80;;;;;;6322903;28;20008;-68
2023/01/09 08:23:50;;;;;;;1.88;1.35;;;19.20;54.80;;;;;;6297462;28;20374;-68
2023/01/09 08:26:51;;;;;;;2.65;1.20;;;19.10;54.70;;;;;;6314548;28;20119;-68
2023/01/09 08:29:51;;;;;;;1.50;1.30;;;19.20;54.80;;;;;;6305051;28;20020;-68
2023/01/09 08:32:58;;;;;;;2.33;1.27;;;19.20;54.80;;;;;;6304696;28;20081;-68
2023/01/09 08:36:05;;;;;;;2.45;1.30;;;19.20;54.90;;;;;;6312751;28;20440;-68
2023/01/09 08:39:06;;;;;;;2.67;1.60;;;19.20;54.90;;;;;;6333618;28;20110;-68
2023/01/09 08:48:47;;;;;;;2.20;1.45;;;19.10;54.90;;;;;;6331852;28;20024;-68
2023/01/09 08:51:48;;;;;;;3.13;1.70;;;19.20;55.10;;;;;;6346563;28;20016;-68
2023/01/09 08:54:48;;;;;;;2.40;1.50;;;19.20;55.00;;;;;;6329405;28;20599;-67
2023/01/09 08:57:53;;;;;;;5.40;1.25;;;19.20;55.00;;;;;;6327284;28;20027;-67
2023/01/09 09:00:54;;;;;;;;;;;19.20;55.10;;;;;;6306078;28;20020;-67
2023/01/09 09:03:55;;;;;;;6.32;3.35;;;19.10;55.00;;;;;;6323049;28;19903;-67
2023/01/09 09:06:55;;;;;;;7.13;4.35;;;19.10;54.10;;;;;;6323178;28;20450;-67
2023/01/09 09:09:56;;;;;;;5.32;3.88;;;19.10;53.30;;;;;;6323055;28;20024;-68
2023/01/09 09:12:57;;;;;;;5.80;3.95;;;19.10;53.10;;;;;;6323062;28;20396;-68
2023/01/09 09:15:58;;;;;;;6.78;4.68;;;19.10;52.90;;;;;;6321190;28;20024;-68
2023/01/09 09:18:59;;;;;;;9.73;5.90;;;19.10;52.40;;;;;;6321700;28;20055;-68
2023/01/09 09:21:59;;;;;;;12.30;5.93;;;19.10;51.70;;;;;;6320071;28;20105;-68
2023/01/09 09:25:01;;;;;;;9.57;5.65;;;19.10;51.50;;;;;;6321208;28;20384;-70
2023/01/09 09:28:02;;;;;;;11.55;5.40;;;19.10;51.50;;;;;;6325045;28;20370;-67
2023/01/09 09:31:06;;;;;;;10.38;4.57;;;19.10;51.80;;;;;;6322073;28;20023;-67
2023/01/09 09:34:09;;;;;;;7.60;4.47;;;19.10;52.40;;;;;;6321829;28;20544;-67
2023/01/09 09:37:11;;;;;;;7.32;4.18;;;19.10;52.60;;;;;;6321604;28;20111;-66
2023/01/09 09:40:19;;;;;;;9.63;4.40;;;19.10;52.80;;;;;;6298623;28;20036;-67
2023/01/09 09:46:57;;;;;;;6.38;4.13;;;19.10;53.10;;;;;;6321748;28;20059;-67
2023/01/09 09:50:22;;;;;;;7.72;3.53;;;19.10;53.30;;;;;;6323062;28;20020;-67
2023/01/09 09:53:29;;;;;;;7.43;3.67;;;19.10;53.40;;;;;;6327118;28;20032;-67
2023/01/09 09:56:38;;;;;;;8.90;4.30;;;19.10;53.40;;;;;;6324434;28;20078;-67
2023/01/09 09:59:41;;;;;;;4.82;3.17;;;19.10;53.50;;;;;;6322089;28;20093;-67
2023/01/09 10:02:49;;;;;;;6.97;3.70;;;19.10;53.60;;;;;;6318024;28;20034;-66
2023/01/09 10:05:51;;;;;;;5.43;3.60;;;19.10;53.70;;;;;;6319304;28;20024;-66
2023/01/09 10:09:15;;;;;;;7.97;3.53;;;19.10;53.60;;;;;;6309239;28;20031;-67
2023/01/09 10:12:52;;;;;;;5.05;3.47;;;19.10;53.70;;;;;;6338688;28;20078;-68
2023/01/09 10:16:04;;;;;;;6.03;3.35;;;19.10;53.70;;;;;;6320095;28;20107;-69
2023/01/09 10:19:35;;;;;;;4.45;3.00;;;19.10;53.70;;;;;;6303128;28;20657;-69
2023/01/09 10:23:06;;;;;;;4.72;3.28;;;19.10;53.80;;;;;;6325365;28;20071;-67
2023/01/09 10:26:42;;;;;;;6.85;3.60;;;19.10;53.80;;;;;;6320954;28;20058;-66
2023/01/09 10:30:08;;;;;;;4.18;2.92;;;19.10;53.90;;;;;;6301215;28;20036;-66
2023/01/09 10:33:29;;;;;;;5.18;3.30;;;19.10;53.90;;;;;;6298336;28;20032;-65
2023/01/09 10:36:30;;;;;;;4.65;3.15;;;19.10;53.90;;;;;;6302537;28;20020;-66
2023/01/09 10:39:51;;;;;;;5.93;3.25;;;19.20;54.10;;;;;;6320780;28;20500;-66
2023/01/09 10:43:33;;;;;;;4.55;3.20;;;19.10;54.00;;;;;;6324645;28;20050;-66
2023/01/09 10:46:48;;;;;;;5.95;3.40;;;19.10;54.00;;;;;;6345817;28;20365;-66
2023/01/09 10:49:49;;;;;;;5.90;3.38;;;19.10;54.00;;;;;;6325856;28;20020;-65
2023/01/09 10:52:52;;;;;;;5.28;2.88;;;19.10;54.10;;;;;;6323248;28;20511;-66
2023/01/09 10:56:04;;;;;;;4.18;2.70;;;19.10;54.10;;;;;;6327332;28;20399;-66
2023/01/09 10:59:08;;;;;;;3.85;2.70;;;19.20;54.10;;;;;;6345488;28;20371;-66
2023/01/09 11:02:27;;;;;;;3.90;2.58;;;19.10;54.10;;;;;;6344490;28;20031;-66
2023/01/09 11:05:29;;;;;;;3.58;2.70;;;19.20;54.20;;;;;;6321890;28;20047;-66
2023/01/09 11:08:44;;;;;;;5.47;3.20;;;19.10;54.10;;;;;;6326358;28;20016;-66
2023/01/09 11:11:44;;;;;;;4.28;3.05;;;19.20;54.20;;;;;;6346042;28;20047;-66
2023/01/09 11:14:45;;;;;;;3.67;2.63;;;19.20;54.20;;;;;;6345278;28;20047;-66
2023/01/09 11:17:46;;;;;;;5.93;2.70;;;19.10;54.20;;;;;;6327410;28;20468;-66
2023/01/09 11:20:49;;;;;;;4.40;2.50;;;19.20;55.00;;;;;;6345206;28;20072;-66
2023/01/09 11:23:50;;;;;;;5.07;3.05;;;19.10;54.20;;;;;;6338182;28;20174;-66
2023/01/09 11:26:53;;;;;;;3.05;2.47;;;19.20;54.30;;;;;;6319855;28;20028;-66
2023/01/09 11:30:06;;;;;;;4.15;2.88;;;19.20;54.40;;;;;;6319561;28;20103;-66
2023/01/09 11:33:17;;;;;;;7.80;3.00;;;19.20;54.40;;;;;;6319695;28;20024;-66
2023/01/09 11:36:24;;;;;;;3.50;2.38;;;19.20;54.50;;;;;;6301907;28;20076;-66
2023/01/09 11:39:29;;;;;;;3.90;2.58;;;19.20;54.50;;;;;;6322555;28;20027;-66
2023/01/09 11:45:55;;;;;;;3.63;2.38;;;19.20;54.50;;;;;;6335101;28;20032;-67
2023/01/09 11:48:57;;;;;;;3.42;2.50;;;19.20;54.50;;;;;;6328281;28;20027;-65
2023/01/09 11:52:13;;;;;;;4.88;2.38;;;19.20;54.60;;;;;;6331283;28;20434;-65
2023/01/09 11:55:18;;;;;;;6.68;2.60;;;19.20;54.60;;;;;;6334941;28;20020;-65
2023/01/09 11:58:20;;;;;;;3.92;2.45;;;19.20;54.60;;;;;;6324270;28;20020;-65
2023/01/09 12:02:02;;;;;;;3.33;2.28;;;19.10;54.50;;;;;;6305429;28;20058;-65
2023/01/09 12:05:15;;;;;;;6.43;2.42;;;19.10;54.50;;;;;;6317533;28;20024;-65
2023/01/09 12:08:25;;;;;;;5.35;2.47;;;19.10;54.50;;;;;;6334394;28;20016;-65
2023/01/09 12:11:55;;;;;;;5.00;2.55;;;19.20;54.60;;;;;;6323652;28;20828;-66
2023/01/09 12:15:08;;;;;;;8.10;2.25;;;19.20;54.60;;;;;;6324025;28;20016;-65
2023/01/09 12:18:22;;;;;;;5.75;2.15;;;19.20;54.60;;;;;;6323921;28;20020;-68
2023/01/09 12:21:33;;;;;;;3.92;1.90;;;19.20;54.60;;;;;;6323478;28;20074;-67
2023/01/09 12:24:55;;;;;;;3.78;2.08;;;19.20;54.60;;;;;;6320134;28;20024;-67
2023/01/09 12:28:23;;;;;;;5.38;2.50;;;19.20;54.60;;;;;;6304185;28;20031;-65
2023/01/09 12:31:31;;;;;;;3.13;2.25;;;19.20;54.60;;;;;;6338016;28;20023;-65
2023/01/09 12:34:53;;;;;;;2.92;2.15;;;19.20;54.60;;;;;;6330234;28;20028;-65
2023/01/09 12:38:21;;;;;;;3.78;2.00;;;19.20;54.60;;;;;;6298553;28;20031;-66
2023/01/09 12:41:34;;;;;;;4.25;2.10;;;19.20;54.70;;;;;;6310277;28;20028;-66
2023/01/09 12:44:48;;;;;;;7.28;2.17;;;19.10;54.70;;;;;;6322065;28;20035;-68
2023/01/09 12:47:51;;;;;;;5.55;2.10;;;19.10;54.80;;;;;;6322332;28;20452;-67
2023/01/09 12:51:07;;;;;;;6.28;1.90;;;19.20;54.80;;;;;;6321495;28;20020;-70
2023/01/09 12:54:13;;;;;;;2.60;1.90;;;19.20;54.80;;;;;;6304253;28;20477;-67
2023/01/09 12:57:36;;;;;;;3.47;2.08;;;19.20;54.80;;;;;;6322246;28;20016;-65
2023/01/09 13:00:41;;;;;;;2.42;1.80;;;19.20;55.50;;;;;;6326738;28;20020;-65
2023/01/09 13:04:05;;;;;;;5.15;1.90;;;19.20;54.90;;;;;;6343962;28;20024;-65
2023/01/09 13:07:37;;;;;;;4.47;1.55;;;19.10;54.80;;;;;;6338067;28;20027;-65
2023/01/09 13:10:50;;;;;;;5.05;1.80;;;19.20;54.90;;;;;;6331367;28;20365;-65
2023/01/09 13:14:00;;;;;;;2.70;1.52;;;19.20;54.90;;;;;;6336913;28;20032;-65
2023/01/09 13:17:02;;;;;;;3.75;1.90;;;19.10;54.80;;;;;;6306811;28;20020;-64
2023/01/09 13:20:30;;;;;;;6.28;2.03;;;19.10;54.90;;;;;;6296438;28;20026;-64
2023/01/09 13:24:08;;;;;;;2.55;1.60;;;19.20;55.00;;;;;;6288787;28;20128;-65
2023/01/09 13:27:16;;;;;;;2.70;1.60;;;19.20;54.90;;;;;;6308818;28;20028;-65
2023/01/09 13:31:02;;;;;;;3.42;1.90;;;19.20;55.00;;;;;;6316525;28;20104;-64
2023/01/09 13:34:08;;;;;;;5.10;1.60;;;19.20;55.00;;;;;;6293134;28;20191;-65
2023/01/09 13:37:25;;;;;;;6.07;1.98;;;19.20;55.00;;;;;;6292900;28;20494;-65
2023/01/09 13:40:28;;;;;;;5.07;2.00;;;19.20;55.00;;;;;;6295968;28;20032;-65
2023/01/09 13:44:14;;;;;;;2.80;1.55;;;19.20;55.00;;;;;;6317609;28;20020;-64
2023/01/09 13:47:23;;;;;;;3.90;1.63;;;19.20;55.10;;;;;;6322842;28;20067;-65
2023/01/09 13:50:26;;;;;;;3.45;1.67;;;19.20;55.00;;;;;;6321243;28;20069;-64
2023/01/09 13:53:26;;;;;;;1.92;1.38;;;19.10;54.90;;;;;;6320836;28;20476;-65
2023/01/09 13:56:27;;;;;;;2.05;1.38;;;19.20;55.10;;;;;;6323310;28;20027;-65
2023/01/09 13:59:28;;;;;;;2.03;1.40;;;19.20;55.10;;;;;;6345735;28;20388;-65
2023/01/09 14:02:37;;;;;;;2.35;1.48;;;19.20;55.00;;;;;;6332111;28;20518;-65
2023/01/09 14:05:38;;;;;;;5.22;1.30;;;19.10;55.00;;;;;;6345849;28;20024;-65
2023/01/09 14:08:40;;;;;;;3.10;1.50;;;19.10;55.00;;;;;;6306723;28;20054;-65
2023/01/09 14:11:42;;;;;;;3.05;1.40;;;19.20;55.10;;;;;;6320261;28;20723;-66
2023/01/09 14:14:45;;;;;;;2.42;1.30;;;19.20;55.10;;;;;;6320464;28;20509;-65
2023/01/09 14:17:48;;;;;;;3.33;1.42;;;19.10;55.00;;;;;;6319927;28;20016;-65
2023/01/09 14:20:59;;;;;;;4.07;1.42;;;19.20;55.10;;;;;;6320116;28;20032;-68
2023/01/09 14:24:03;;;;;;;2.83;1.45;;;19.20;55.10;;;;;;6300627;28;20047;-65
2023/01/09 14:27:04;;;;;;;1.52;1.30;;;19.20;55.10;;;;;;6297388;28;20606;-65
2023/01/09 14:30:25;;;;;;;3.50;1.58;;;19.10;55.10;;;;;;6318748;28;20032;-65
2023/01/09 14:33:28;;;;;;;1.73;1.33;;;19.10;55.00;;;;;;6318748;28;20024;-65
2023/01/09 14:36:34;;;;;;;1.50;1.23;;;19.10;55.00;;;;;;6318720;28;20019;-65
2023/01/09 14:39:35;;;;;;;1.85;1.35;;;19.20;55.10;;;;;;6318585;28;20032;-64
2023/01/09 14:42:40;;;;;;;2.10;1.60;;;19.20;55.20;;;;;;6318649;28;20027;-65
2023/01/09 14:45:45;;;;;;;3.40;1.42;;;19.20;55.10;;;;;;6300403;28;20184;-65
2023/01/09 14:49:02;;;;;;;4.13;1.20;;;19.20;55.10;;;;;;6300203;28;20488;-65
2023/01/09 14:52:30;;;;;;;1.80;1.40;;;19.20;55.10;;;;;;6318810;28;20419;-65
2023/01/09 14:55:59;;;;;;;3.97;1.30;;;19.20;55.10;;;;;;6300234;28;20033;-65
2023/01/09 14:59:11;;;;;;;2.47;1.30;;;19.10;55.10;;;;;;6318784;28;20024;-65
2023/01/09 15:02:12;;;;;;;2.88;1.20;;;19.10;55.10;;;;;;6318120;28;20032;-65
2023/01/09 15:05:24;;;;;;;3.08;1.33;;;19.20;55.10;;;;;;6341609;28;20412;-65
2023/01/09 15:08:26;;;;;;;4.60;1.20;;;19.10;55.00;;;;;;6330326;28;20024;-64
2023/01/09 15:11:28;;;;;;;2.88;1.23;;;19.20;55.10;;;;;;6318086;28;20020;-65
2023/01/09 15:14:38;;;;;;;2.88;1.20;;;19.20;55.10;;;;;;6325313;28;20487;-65
2023/01/09 15:17:42;;;;;;;1.70;1.08;;;19.20;55.20;;;;;;6337759;28;20024;-65
2023/01/09 15:20:42;;;;;;;1.92;1.27;;;19.20;55.10;;;;;;6321454;28;20438;-64
2023/01/09 15:23:43;;;;;;;1.90;1.25;;;19.20;55.20;;;;;;6304632;28;20055;-65
2023/01/09 15:26:52;;;;;;;1.70;1.10;;;19.20;55.10;;;;;;6304799;28;20140;-66
2023/01/09 15:29:53;;;;;;;2.22;1.13;;;19.20;55.20;;;;;;6323086;28;20059;-66
2023/01/09 15:32:54;;;;;;;1.92;1.20;;;19.20;55.10;;;;;;6323377;28;20024;-64
2023/01/09 15:36:00;;;;;;;1.40;1.02;;;19.20;55.10;;;;;;6304395;28;20028;-65
2023/01/09 15:39:05;;;;;;;2.67;1.13;;;19.20;55.20;;;;;;6322313;28;20043;-64
2023/01/09 15:45:40;;;;;;;4.88;1.15;;;19.20;55.20;;;;;;6317866;28;19907;-65
2023/01/09 15:48:41;;;;;;;2.28;1.23;;;19.20;55.30;;;;;;6322128;28;20027;-66
2023/01/09 15:51:44;;;;;;;2.05;1.10;;;19.20;55.20;;;;;;6304743;28;20020;-65
2023/01/09 15:54:45;;;;;;;1.45;1.15;;;19.20;55.20;;;;;;6304072;28;20028;-66
2023/01/09 15:57:52;;;;;;;2.05;1.00;;;19.20;55.30;;;;;;6322491;28;20024;-66
2023/01/09 16:01:03;;;;;;;3.10;1.25;;;19.20;55.30;;;;;;6322436;28;20063;-65
2023/01/09 16:04:14;;;;;;;2.25;1.20;;;19.20;55.40;;;;;;6321957;28;20048;-65
2023/01/09 16:07:18;;;;;;;3.95;1.38;;;19.20;55.30;;;;;;6321791;28;20028;-64
2023/01/09 16:10:37;;;;;;;2.00;1.20;;;19.20;55.30;;;;;;6322075;28;20433;-66
2023/01/09 16:13:43;;;;;;;1.08;0.90;;;19.20;55.30;;;;;;6321837;28;20024;-65
2023/01/09 16:16:46;;;;;;;1.52;1.10;;;19.20;55.30;;;;;;6303593;28;20036;-65
2023/01/09 16:20:11;;;;;;;1.42;0.80;;;19.20;55.30;;;;;;6321624;28;20358;-64
2023/01/09 16:23:21;;;;;;;2.28;1.13;;;19.20;55.30;;;;;;6303298;28;20047;-64
2023/01/09 16:26:26;;;;;;;2.30;1.25;;;19.20;55.30;;;;;;6321155;28;20066;-64
2023/01/09 16:29:37;;;;;;;3.27;1.07;;;19.20;55.30;;;;;;6321566;28;20023;-65
2023/01/09 16:32:50;;;;;;;2.25;1.30;;;19.20;55.30;;;;;;6322068;28;20024;-65